Time;durP1;ratioP1;P1;durP2;ratioP2;P2;SDS_P1;SDS_P2;PMS_P1;PMS_P2;Temp;Humidity;BMP_temperature;BMP_pressure;BME280_temperature;BME280_humidity;BME280_pressure;Samples;Min_cycle;Max_cycle;Signal;HPM_P1;HPM_P2
2023/09/08 00:04:26;;;;;;;12.70;11.50;;;;;;;;;;2612564;54;20394;-84
2023/09/08 00:09:56;;;;;;;12.83;11.63;;;;;;;;;;2612334;54;20999;-79
2023/09/08 00:15:26;;;;;;;13.00;11.73;;;;;;;;;;2611553;54;20508;-80
2023/09/08 00:20:56;;;;;;;13.53;12.07;;;;;;;;;;2612377;54;20389;-80
2023/09/08 00:26:26;;;;;;;12.30;11.20;;;;;;;;;;2612506;54;21100;-77
2023/09/08 00:31:56;;;;;;;13.60;12.30;;;;;;;;;;2612229;54;20429;-78
2023/09/08 00:37:26;;;;;;;13.17;11.70;;;;;;;;;;2611436;54;20463;-78
2023/09/08 00:42:55;;;;;;;13.77;12.33;;;;;;;;;;2612625;54;20425;-76
2023/09/08 00:48:25;;;;;;;13.63;12.33;;;;;;;;;;2611670;54;20544;-77
2023/09/08 00:53:55;;;;;;;13.83;12.57;;;;;;;;;;2612348;54;20403;-76
2023/09/08 00:59:25;;;;;;;12.77;11.57;;;;;;;;;;2612787;54;20379;-76
2023/09/08 01:04:55;;;;;;;13.43;12.13;;;;;;;;;;2615280;54;20944;-78
2023/09/08 01:10:25;;;;;;;12.93;11.63;;;;;;;;;;2615381;54;20419;-79
2023/09/08 01:15:55;;;;;;;13.00;11.90;;;;;;;;;;2615629;54;20535;-78
2023/09/08 01:21:27;;;;;;;13.67;11.77;;;;;;;;;;2614782;54;20924;-78
2023/09/08 01:26:57;;;;;;;13.60;12.20;;;;;;;;;;2615683;39;20774;-78
2023/09/08 01:32:27;;;;;;;12.30;11.20;;;;;;;;;;2616665;54;20434;-78
2023/09/08 01:37:57;;;;;;;13.67;12.47;;;;;;;;;;2615849;54;20962;-78
2023/09/08 01:47:04;;;;;;;13.60;12.23;;;;;;;;;;2615118;54;20977;-79
2023/09/08 01:52:33;;;;;;;14.87;13.47;;;;;;;;;;2615341;54;20420;-78
2023/09/08 01:58:03;;;;;;;14.57;12.37;;;;;;;;;;2615253;54;20499;-78
2023/09/08 02:03:33;;;;;;;13.80;12.50;;;;;;;;;;2612339;54;20374;-79
2023/09/08 02:09:03;;;;;;;16.13;14.53;;;;;;;;;;2615830;54;20414;-78
2023/09/08 02:14:32;;;;;;;13.97;12.60;;;;;;;;;;2616427;54;20407;-78
2023/09/08 02:20:03;;;;;;;15.73;12.83;;;;;;;;;;2615484;54;20507;-78
2023/09/08 02:25:32;;;;;;;15.00;13.47;;;;;;;;;;2615736;54;20966;-78
2023/09/08 02:31:02;;;;;;;14.30;12.83;;;;;;;;;;2614774;54;20426;-80
2023/09/08 02:36:32;;;;;;;14.40;12.97;;;;;;;;;;2614915;54;20409;-78
2023/09/08 02:42:02;;;;;;;17.80;14.77;;;;;;;;;;2617205;54;20379;-80
2023/09/08 02:47:31;;;;;;;14.63;13.20;;;;;;;;;;2616556;54;21000;-81
2023/09/08 02:53:01;;;;;;;15.70;13.10;;;;;;;;;;2616165;54;20420;-82
2023/09/08 02:58:35;;;;;;;13.97;12.37;;;;;;;;;;2616077;54;20394;-82
2023/09/08 03:04:04;;;;;;;16.17;14.20;;;;;;;;;;2616601;54;20337;-80
2023/09/08 03:09:37;;;;;;;15.00;13.70;;;;;;;;;;2615606;54;20426;-81
2023/09/08 03:15:07;;;;;;;15.43;13.90;;;;;;;;;;2617991;54;20379;-80
2023/09/08 03:20:37;;;;;;;15.53;14.00;;;;;;;;;;2617720;54;20393;-82
2023/09/08 03:26:07;;;;;;;14.03;12.63;;;;;;;;;;2617930;54;20379;-80
2023/09/08 03:31:37;;;;;;;14.80;13.30;;;;;;;;;;2617721;46;20426;-81
2023/09/08 03:37:06;;;;;;;14.37;13.03;;;;;;;;;;2617367;54;20471;-80
2023/09/08 03:42:36;;;;;;;15.63;13.90;;;;;;;;;;2617510;54;21022;-81
2023/09/08 03:54:13;;;;;;;15.47;13.87;;;;;;;;;;2616250;54;20375;-79
2023/09/08 03:59:43;;;;;;;15.50;14.03;;;;;;;;;;2617080;39;20749;-81
2023/09/08 04:05:12;;;;;;;15.47;13.87;;;;;;;;;;2615943;54;20387;-78
2023/09/08 04:10:42;;;;;;;28.33;15.60;;;;;;;;;;2612276;54;20378;-79
2023/09/08 04:16:12;;;;;;;14.40;12.87;;;;;;;;;;2615348;54;20370;-80
2023/09/08 04:21:41;;;;;;;14.97;13.40;;;;;;;;;;2615006;54;20477;-79
2023/09/08 04:27:11;;;;;;;15.17;13.40;;;;;;;;;;2615990;54;20423;-78
2023/09/08 04:32:41;;;;;;;15.73;14.17;;;;;;;;;;2615415;39;20811;-79
2023/09/08 04:38:11;;;;;;;14.17;12.77;;;;;;;;;;2615033;54;20389;-79
2023/09/08 04:43:40;;;;;;;15.03;13.63;;;;;;;;;;2614183;54;20355;-79
2023/09/08 04:58:40;;;;;;;20.73;16.07;;;;;;;;;;2612942;54;20426;-78
2023/09/08 05:04:10;;;;;;;17.10;15.47;;;;;;;;;;2613714;54;20475;-76
2023/09/08 05:09:39;;;;;;;17.87;15.50;;;;;;;;;;2612943;54;20964;-78
2023/09/08 05:15:14;;;;;;;19.40;15.57;;;;;;;;;;2611827;54;20374;-75
2023/09/08 05:20:43;;;;;;;17.87;15.97;;;;;;;;;;2613246;54;20418;-77
2023/09/08 05:26:13;;;;;;;19.33;16.63;;;;;;;;;;2614211;54;20374;-76
2023/09/08 05:31:43;;;;;;;18.10;14.93;;;;;;;;;;2614820;39;20812;-75
2023/09/08 05:37:12;;;;;;;19.73;15.70;;;;;;;;;;2614789;54;20488;-77
2023/09/08 05:42:43;;;;;;;22.50;17.13;;;;;;;;;;2613744;54;20462;-76
2023/09/08 05:48:12;;;;;;;18.50;16.60;;;;;;;;;;2613730;46;20415;-76
2023/09/08 05:53:42;;;;;;;24.47;17.80;;;;;;;;;;2613037;54;20383;-76
2023/09/08 05:59:12;;;;;;;18.03;15.70;;;;;;;;;;2613428;54;20704;-76
2023/09/08 06:04:42;;;;;;;19.90;16.23;;;;;;;;;;2613925;54;20383;-75
2023/09/08 06:10:11;;;;;;;18.57;16.67;;;;;;;;;;2614175;39;20760;-77
2023/09/08 06:15:41;;;;;;;20.23;18.13;;;;;;;;;;2614342;54;20387;-80
2023/09/08 06:21:11;;;;;;;17.90;16.13;;;;;;;;;;2615648;39;20769;-78
2023/09/08 06:24:09;;;;;;;19.80;17.97;;;;;;;;;;2612600;54;20415;-79
2023/09/08 06:26:35;;;;;;;19.10;17.30;;;;;;;;;;2608993;54;20510;-79
2023/09/08 06:32:05;;;;;;;21.33;19.13;;;;;;;;;;2613828;54;20881;-78
2023/09/08 06:37:38;;;;;;;22.20;20.50;;;;;;;;;;2615034;54;20415;-79
2023/09/08 06:43:07;;;;;;;22.50;20.03;;;;;;;;;;2614811;54;20419;-79
2023/09/08 06:54:45;;;;;;;23.03;21.10;;;;;;;;;;2614682;54;20382;-81
2023/09/08 07:00:17;;;;;;;20.77;19.17;;;;;;;;;;2614914;54;20379;-80
2023/09/08 07:05:47;;;;;;;23.93;22.00;;;;;;;;;;2614387;39;20803;-79
2023/09/08 07:11:17;;;;;;;21.83;19.93;;;;;;;;;;2613137;54;20394;-78
2023/09/08 07:16:46;;;;;;;22.07;20.40;;;;;;;;;;2614953;39;20876;-78
2023/09/08 07:22:16;;;;;;;36.30;20.00;;;;;;;;;;2613085;54;20402;-78
2023/09/08 07:27:46;;;;;;;22.97;19.90;;;;;;;;;;2614869;54;20395;-79
2023/09/08 07:33:15;;;;;;;21.37;19.47;;;;;;;;;;2614846;54;20961;-79
2023/09/08 07:38:45;;;;;;;20.17;18.73;;;;;;;;;;2614232;39;20911;-80
2023/09/08 07:41:30;;;;;;;21.53;19.77;;;;;;;;;;2614292;54;20383;-78
2023/09/08 07:43:56;;;;;;;20.17;18.90;;;;;;;;;;2614519;54;20392;-78
2023/09/08 07:52:57;;;;;;;20.40;18.57;;;;;;;;;;2614415;39;20771;-78
2023/09/08 07:58:27;;;;;;;20.80;18.83;;;;;;;;;;2612515;54;20459;-78
2023/09/08 08:03:56;;;;;;;18.63;17.43;;;;;;;;;;2613214;54;21115;-79
2023/09/08 08:09:26;;;;;;;19.40;18.13;;;;;;;;;;2615123;54;20949;-79
2023/09/08 08:14:55;;;;;;;18.20;16.90;;;;;;;;;;2615180;54;20478;-79
2023/09/08 08:20:25;;;;;;;17.47;16.67;;;;;;;;;;2613962;39;20867;-80
2023/09/08 08:25:55;;;;;;;18.20;17.00;;;;;;;;;;2614142;39;20771;-78
2023/09/08 08:31:24;;;;;;;17.03;16.03;;;;;;;;;;2613689;54;20526;-79
2023/09/08 08:36:54;;;;;;;16.70;15.80;;;;;;;;;;2614117;54;20502;-79
2023/09/08 08:42:31;;;;;;;16.90;16.00;;;;;;;;;;2613997;54;20415;-79
2023/09/08 08:48:02;;;;;;;16.87;15.87;;;;;;;;;;2611844;54;20419;-78
2023/09/08 08:53:32;;;;;;;16.43;15.50;;;;;;;;;;2611981;31;20950;-78
2023/09/08 08:59:02;;;;;;;17.07;16.17;;;;;;;;;;2611397;54;20507;-78
2023/09/08 09:04:32;;;;;;;17.93;16.73;;;;;;;;;;2612589;54;20415;-77
2023/09/08 09:10:02;;;;;;;17.27;15.83;;;;;;;;;;2611209;54;20395;-78
2023/09/08 09:15:32;;;;;;;16.80;15.80;;;;;;;;;;2610363;54;20745;-78
2023/09/08 09:21:02;;;;;;;17.27;16.10;;;;;;;;;;2610095;54;20507;-78
2023/09/08 09:26:32;;;;;;;16.73;15.93;;;;;;;;;;2613464;54;20375;-78
2023/09/08 09:32:04;;;;;;;17.43;16.33;;;;;;;;;;2613133;54;20471;-79
2023/09/08 09:37:35;;;;;;;18.10;17.10;;;;;;;;;;2614065;54;20418;-78
2023/09/08 09:43:06;;;;;;;16.83;15.73;;;;;;;;;;2614582;54;20346;-79
2023/09/08 09:48:36;;;;;;;17.87;16.97;;;;;;;;;;2613398;54;20437;-77
2023/09/08 09:57:46;;;;;;;16.53;15.70;;;;;;;;;;2612491;54;20487;-76
2023/09/08 10:03:16;;;;;;;16.73;15.83;;;;;;;;;;2611482;54;20427;-76
2023/09/08 10:08:46;;;;;;;17.17;16.17;;;;;;;;;;2614309;54;21363;-76
2023/09/08 10:14:16;;;;;;;16.90;16.10;;;;;;;;;;2613874;54;21050;-75
2023/09/08 10:19:51;;;;;;;17.33;16.53;;;;;;;;;;2613643;54;20390;-76
2023/09/08 10:25:21;;;;;;;18.00;16.90;;;;;;;;;;2612845;54;20384;-75
2023/09/08 10:30:51;;;;;;;16.70;15.60;;;;;;;;;;2613827;47;20877;-76
2023/09/08 10:36:21;;;;;;;18.30;17.50;;;;;;;;;;2614092;54;20397;-76
2023/09/08 10:41:51;;;;;;;17.77;16.67;;;;;;;;;;2614167;54;20376;-77
2023/09/08 10:47:24;;;;;;;16.80;15.90;;;;;;;;;;2612419;54;20868;-76
2023/09/08 10:53:13;;;;;;;17.03;16.23;;;;;;;;;;2611471;54;20416;-75
2023/09/08 10:58:43;;;;;;;16.70;15.90;;;;;;;;;;2611789;54;20399;-75
2023/09/08 11:04:13;;;;;;;16.57;15.63;;;;;;;;;;2613390;54;20399;-75
2023/09/08 11:09:43;;;;;;;16.63;15.83;;;;;;;;;;2615190;54;20378;-76
2023/09/08 11:15:13;;;;;;;17.10;16.10;;;;;;;;;;2614851;54;20394;-76
2023/09/08 11:20:44;;;;;;;17.50;16.50;;;;;;;;;;2612725;54;20502;-76
2023/09/08 11:26:14;;;;;;;16.83;15.93;;;;;;;;;;2613165;54;20391;-76
2023/09/08 11:31:44;;;;;;;17.37;16.47;;;;;;;;;;2612907;54;20422;-75
2023/09/08 11:37:15;;;;;;;16.77;15.40;;;;;;;;;;2609293;54;20499;-76
2023/09/08 11:42:45;;;;;;;17.97;17.07;;;;;;;;;;2612819;54;20409;-76
2023/09/08 11:48:15;;;;;;;16.70;15.90;;;;;;;;;;2611532;54;20477;-76
2023/09/08 11:59:53;;;;;;;17.17;16.37;;;;;;;;;;2610826;54;20404;-75
2023/09/08 12:05:27;;;;;;;17.13;16.33;;;;;;;;;;2612353;54;20392;-77
2023/09/08 12:10:57;;;;;;;16.00;14.90;;;;;;;;;;2614327;54;20417;-75
2023/09/08 12:16:26;;;;;;;17.60;16.30;;;;;;;;;;2613814;39;20797;-77
2023/09/08 12:21:57;;;;;;;17.73;16.83;;;;;;;;;;2614236;54;20357;-77
2023/09/08 12:27:27;;;;;;;18.00;17.10;;;;;;;;;;2614850;54;20383;-78
2023/09/08 12:32:58;;;;;;;18.17;17.30;;;;;;;;;;2614820;54;20509;-77
2023/09/08 12:38:33;;;;;;;18.73;17.83;;;;;;;;;;2615497;54;20417;-76
2023/09/08 12:44:03;;;;;;;18.13;17.33;;;;;;;;;;2616777;39;20945;-76
2023/09/08 12:49:32;;;;;;;17.73;16.93;;;;;;;;;;2616286;46;20444;-78
2023/09/08 13:04:32;;;;;;;17.13;16.33;;;;;;;;;;2610663;54;20440;-76
2023/09/08 13:10:01;;;;;;;16.50;15.73;;;;;;;;;;2612364;39;20932;-77
2023/09/08 13:15:30;;;;;;;17.83;16.73;;;;;;;;;;2614061;54;20420;-77
2023/09/08 13:20:59;;;;;;;17.37;16.57;;;;;;;;;;2610808;54;20383;-76
2023/09/08 13:26:28;;;;;;;16.63;15.83;;;;;;;;;;2614671;54;20374;-76
2023/09/08 13:32:00;;;;;;;17.60;16.80;;;;;;;;;;2615938;54;20379;-75
2023/09/08 13:37:30;;;;;;;17.23;16.37;;;;;;;;;;2615454;54;20954;-77
2023/09/08 13:43:00;;;;;;;17.77;16.83;;;;;;;;;;2617643;54;20357;-76
2023/09/08 13:48:30;;;;;;;16.80;15.90;;;;;;;;;;2614290;54;20419;-76
2023/09/08 13:54:00;;;;;;;16.00;15.30;;;;;;;;;;2617507;54;20897;-77
2023/09/08 13:59:30;;;;;;;17.37;16.37;;;;;;;;;;2616328;54;20913;-76
2023/09/08 14:05:00;;;;;;;15.40;14.70;;;;;;;;;;2609519;54;20384;-76
2023/09/08 14:10:29;;;;;;;17.70;16.77;;;;;;;;;;2614825;54;20383;-77
2023/09/08 14:16:00;;;;;;;16.63;15.80;;;;;;;;;;2617856;54;20420;-78
2023/09/08 14:21:29;;;;;;;17.80;16.83;;;;;;;;;;2616442;54;20383;-76
2023/09/08 14:26:59;;;;;;;18.30;16.83;;;;;;;;;;2615955;39;20881;-75
2023/09/08 14:32:29;;;;;;;18.20;17.20;;;;;;;;;;2615255;54;20422;-77
2023/09/08 14:37:59;;;;;;;16.97;16.17;;;;;;;;;;2615025;54;20391;-76
2023/09/08 14:43:29;;;;;;;17.10;16.20;;;;;;;;;;2614557;54;20389;-75
2023/09/08 14:48:59;;;;;;;16.37;15.47;;;;;;;;;;2615083;54;20444;-76
2023/09/08 15:00:36;;;;;;;16.87;16.17;;;;;;;;;;2614628;54;20960;-76
2023/09/08 15:06:08;;;;;;;17.47;16.57;;;;;;;;;;2614420;54;20376;-76
2023/09/08 15:11:38;;;;;;;17.00;16.20;;;;;;;;;;2614873;54;20379;-74
2023/09/08 15:17:08;;;;;;;16.93;16.13;;;;;;;;;;2613727;54;20390;-76
2023/09/08 15:22:37;;;;;;;17.03;15.93;;;;;;;;;;2613619;54;20939;-76
2023/09/08 15:28:07;;;;;;;17.27;16.40;;;;;;;;;;2613652;54;20390;-76
2023/09/08 15:33:40;;;;;;;17.23;16.43;;;;;;;;;;2614167;54;20396;-76
2023/09/08 15:39:10;;;;;;;17.57;16.47;;;;;;;;;;2614317;54;20402;-77
2023/09/08 15:44:39;;;;;;;17.30;16.30;;;;;;;;;;2613126;54;20387;-77
2023/09/08 15:50:10;;;;;;;17.93;16.73;;;;;;;;;;2615442;39;20768;-77
2023/09/08 15:59:14;;;;;;;16.07;15.37;;;;;;;;;;2616368;54;20423;-77
2023/09/08 16:04:44;;;;;;;17.00;15.83;;;;;;;;;;2615250;54;20409;-77
2023/09/08 16:10:13;;;;;;;17.50;16.70;;;;;;;;;;2614679;54;20359;-78
2023/09/08 16:15:43;;;;;;;17.23;16.43;;;;;;;;;;2614332;54;20914;-78
2023/09/08 16:21:13;;;;;;;18.40;17.30;;;;;;;;;;2613936;54;20383;-77
2023/09/08 16:26:42;;;;;;;18.80;17.80;;;;;;;;;;2614480;54;20431;-77
2023/09/08 16:32:12;;;;;;;17.43;16.40;;;;;;;;;;2615067;54;20511;-77
2023/09/08 16:37:43;;;;;;;18.17;17.10;;;;;;;;;;2612410;54;20427;-77
2023/09/08 16:43:14;;;;;;;16.87;15.90;;;;;;;;;;2613800;54;20394;-77
2023/09/08 16:48:43;;;;;;;17.83;16.83;;;;;;;;;;2614889;54;20391;-78
2023/09/08 16:54:13;;;;;;;17.60;16.60;;;;;;;;;;2613809;54;20991;-79
2023/09/08 16:59:43;;;;;;;19.10;17.90;;;;;;;;;;2614358;54;20862;-77
2023/09/08 17:05:17;;;;;;;18.07;16.97;;;;;;;;;;2614952;54;20411;-77
2023/09/08 17:10:48;;;;;;;17.60;16.60;;;;;;;;;;2613992;54;20391;-79
2023/09/08 17:16:17;;;;;;;19.70;17.77;;;;;;;;;;2615250;31;20838;-78
2023/09/08 17:21:47;;;;;;;18.70;17.60;;;;;;;;;;2613308;54;20374;-78
2023/09/08 17:27:17;;;;;;;18.90;17.70;;;;;;;;;;2614947;46;20402;-79
2023/09/08 17:32:46;;;;;;;17.40;16.40;;;;;;;;;;2615593;54;20399;-79
2023/09/08 17:38:16;;;;;;;18.37;17.23;;;;;;;;;;2614997;54;20407;-78
2023/09/08 17:43:46;;;;;;;17.77;16.80;;;;;;;;;;2613324;54;20399;-78
2023/09/08 17:49:16;;;;;;;18.80;17.63;;;;;;;;;;2611427;54;20391;-79
2023/09/08 17:54:46;;;;;;;18.60;17.43;;;;;;;;;;2613954;46;20406;-78
2023/09/08 18:00:16;;;;;;;19.40;18.10;;;;;;;;;;2614722;39;20790;-80
2023/09/08 18:05:45;;;;;;;19.23;17.77;;;;;;;;;;2613508;39;20789;-79
2023/09/08 18:11:16;;;;;;;21.83;18.33;;;;;;;;;;2614485;39;20800;-80
2023/09/08 18:16:52;;;;;;;19.23;17.80;;;;;;;;;;2613565;54;20394;-78
2023/09/08 18:22:21;;;;;;;18.83;17.50;;;;;;;;;;2612525;54;20395;-79
2023/09/08 18:27:51;;;;;;;22.40;20.40;;;;;;;;;;2613690;54;20391;-79
2023/09/08 18:33:21;;;;;;;31.50;28.40;;;;;;;;;;2613754;54;20394;-79
2023/09/08 18:38:50;;;;;;;42.13;37.80;;;;;;;;;;2613646;47;20386;-80
2023/09/08 18:44:20;;;;;;;46.60;42.10;;;;;;;;;;2612362;54;20426;-79
2023/09/08 18:49:50;;;;;;;29.90;27.23;;;;;;;;;;2611822;54;20395;-79
2023/09/08 19:01:27;;;;;;;21.90;20.30;;;;;;;;;;2613728;39;20888;-78
2023/09/08 19:06:57;;;;;;;18.90;17.00;;;;;;;;;;2614978;54;20387;-78
2023/09/08 19:12:27;;;;;;;18.53;16.63;;;;;;;;;;2613437;54;20410;-79
2023/09/08 19:17:57;;;;;;;18.90;17.40;;;;;;;;;;2615273;39;20729;-79
2023/09/08 19:23:26;;;;;;;18.93;17.43;;;;;;;;;;2616079;54;20419;-80
2023/09/08 19:28:56;;;;;;;17.57;16.00;;;;;;;;;;2616125;54;20419;-79
2023/09/08 19:34:27;;;;;;;18.10;16.63;;;;;;;;;;2616066;54;20836;-81
2023/09/08 19:39:56;;;;;;;17.87;16.37;;;;;;;;;;2616445;54;20379;-81
2023/09/08 19:45:26;;;;;;;16.97;15.53;;;;;;;;;;2616208;54;20395;-81
2023/09/08 19:50:57;;;;;;;18.20;16.53;;;;;;;;;;2615428;54;20426;-80
2023/09/08 20:00:04;;;;;;;17.47;16.07;;;;;;;;;;2615569;54;20423;-81
2023/09/08 20:05:34;;;;;;;16.80;15.30;;;;;;;;;;2615530;54;20399;-80
2023/09/08 20:11:04;;;;;;;16.70;15.17;;;;;;;;;;2615671;54;20470;-78
2023/09/08 20:16:33;;;;;;;18.40;15.57;;;;;;;;;;2616286;39;20783;-79
2023/09/08 20:22:03;;;;;;;16.73;15.17;;;;;;;;;;2615211;54;20383;-79
2023/09/08 20:27:33;;;;;;;16.33;15.07;;;;;;;;;;2614679;54;20347;-79
2023/09/08 20:33:02;;;;;;;16.77;15.10;;;;;;;;;;2615789;46;20419;-81
2023/09/08 20:38:32;;;;;;;17.87;16.30;;;;;;;;;;2616660;39;20758;-80
2023/09/08 20:44:02;;;;;;;17.60;16.10;;;;;;;;;;2615897;54;20383;-78
2023/09/08 20:49:32;;;;;;;18.10;16.13;;;;;;;;;;2614791;54;20394;-79
2023/09/08 20:55:02;;;;;;;15.20;14.00;;;;;;;;;;2614827;54;20658;-81
2023/09/08 21:00:34;;;;;;;15.73;14.50;;;;;;;;;;2615723;54;20488;-80
2023/09/08 21:06:04;;;;;;;16.27;14.70;;;;;;;;;;2614069;54;20376;-80
2023/09/08 21:11:34;;;;;;;16.73;15.03;;;;;;;;;;2614946;46;20467;-79
2023/09/08 21:17:04;;;;;;;15.50;14.27;;;;;;;;;;2615183;54;20439;-80
2023/09/08 21:22:33;;;;;;;16.40;14.90;;;;;;;;;;2614538;39;20735;-80
2023/09/08 21:28:04;;;;;;;16.30;15.00;;;;;;;;;;2616050;39;20766;-80
2023/09/08 21:33:38;;;;;;;15.70;14.40;;;;;;;;;;2616094;54;20408;-80
2023/09/08 21:39:07;;;;;;;15.87;14.37;;;;;;;;;;2614735;54;20952;-80
2023/09/08 21:44:37;;;;;;;19.57;17.50;;;;;;;;;;2615068;54;20387;-80
2023/09/08 21:50:07;;;;;;;16.90;14.80;;;;;;;;;;2615206;54;20412;-79
2023/09/08 21:55:37;;;;;;;16.47;14.87;;;;;;;;;;2615409;54;20404;-79
2023/09/08 22:04:38;;;;;;;15.50;14.20;;;;;;;;;;2615569;46;20432;-81
2023/09/08 22:10:09;;;;;;;15.30;13.90;;;;;;;;;;2614509;46;20521;-82
2023/09/08 22:15:39;;;;;;;15.00;13.70;;;;;;;;;;2614418;54;20402;-80
2023/09/08 22:21:09;;;;;;;15.67;14.17;;;;;;;;;;2614431;54;20415;-80
2023/09/08 22:26:39;;;;;;;16.73;15.20;;;;;;;;;;2613820;54;20939;-79
2023/09/08 22:32:09;;;;;;;15.23;13.90;;;;;;;;;;2615233;54;20411;-81
2023/09/08 22:37:38;;;;;;;15.77;14.27;;;;;;;;;;2615098;46;20406;-80
2023/09/08 22:43:08;;;;;;;16.17;14.43;;;;;;;;;;2615454;54;20359;-80
2023/09/08 22:48:37;;;;;;;18.27;16.47;;;;;;;;;;2615298;39;20757;-80
2023/09/08 22:54:07;;;;;;;15.80;14.50;;;;;;;;;;2615654;54;20368;-80
2023/09/08 22:59:36;;;;;;;17.00;15.50;;;;;;;;;;2616559;54;20391;-77
2023/09/08 23:05:07;;;;;;;14.37;13.00;;;;;;;;;;2616319;46;20409;-78
2023/09/08 23:10:37;;;;;;;15.80;14.43;;;;;;;;;;2615721;54;20560;-77
2023/09/08 23:16:06;;;;;;;16.53;15.07;;;;;;;;;;2616671;39;20798;-78
2023/09/08 23:21:36;;;;;;;15.43;14.13;;;;;;;;;;2616618;39;20865;-78
2023/09/08 23:27:05;;;;;;;15.43;13.97;;;;;;;;;;2616575;54;20387;-78
2023/09/08 23:32:35;;;;;;;17.20;15.40;;;;;;;;;;2615885;54;20382;-78
2023/09/08 23:38:06;;;;;;;16.47;15.07;;;;;;;;;;2616377;46;20414;-79
2023/09/08 23:43:35;;;;;;;17.77;16.13;;;;;;;;;;2616428;54;20495;-80
2023/09/08 23:49:05;;;;;;;17.90;14.47;;;;;;;;;;2616272;54;20415;-80
2023/09/08 23:54:34;;;;;;;17.50;15.90;;;;;;;;;;2615684;54;20962;-79
